Friday, July 20, 2018, 4:55 AM EDT
Back to Local

KJHW, Jamestown, Chautauqua County/jamestown Airport

Location: Jamestown, NY, United States Lat: 42.15
Local Time: 4:55 AM EDT ( 8:55 GMT) Lon: -79.267
Time Zone: US/Eastern Elev: 1722 ft

Show me the last for .
Show Coded

Time T Td Feel RH Dir Speed Gust Alt SLP Vis Weather Sky Remarks
2018-07-20 03:56 61 56 - 83 170° 7 - 30.09 30.07 10 CLR None
2018-07-20 02:56 61 56 - 83 170° 6 - 30.09 30.07 10 CLR None
2018-07-20 00:56 60 56 - 86 160° 6 - 30.10 30.09 10 CLR 24-hr Min Temp (1am): 52.0°F
24-hr Max Temp (1am): 77.0°F
2018-07-19 23:56 65 56 - 72 130° 5 - 30.10 30.09 10 CLR None
2018-07-19 21:56 67 54 - 63 50° 6 - 30.10 30.09 10 CLR None
2018-07-19 20:56 69 53 - 56 340° 5 - 30.09 30.08 10 CLR None
2018-07-19 19:56 73 55 77 53 340° 5 - 30.08 30.08 10 CLR 6-hr Min Temp (8pm): 73.0°F
6-hr Max Temp (8pm): 77.0°F
2018-07-19 18:56 76 51 77 41 200° 6 - 30.10 30.09 10 CLR None
2018-07-19 17:56 77 53 78 43 200° 8 - 30.10 30.09 10 CLR None
2018-07-19 16:56 77 54 78 44 Variable 3 - 30.10 30.09 10 CLR None
2018-07-19 15:56 75 53 77 46 Variable 3 - 30.11 30.11 10 CLR None
2018-07-19 14:56 75 52 77 44 Variable 3 - 30.13 30.12 10 CLR None
2018-07-19 13:56 73 50 76 44 200° 5 - 30.14 30.14 10 CLR 6-hr Min Temp (2pm): 57.9°F
6-hr Max Temp (2pm): 73.9°F
2018-07-19 12:56 73 52 76 47 260° 10 - 30.15 30.14 10 CLR None
2018-07-19 11:56 71 52 76 50 250° 10 - 30.16 30.16 10 CLR None
2018-07-19 10:56 69 53 - 56 210° 8 - 30.16 30.16 10 CLR None
2018-07-19 09:56 67 55 - 65 230° 8 - 30.16 30.15 10 CLR None
2018-07-19 08:56 63 55 - 75 170° 5 - 30.15 30.15 10 CLR None
2018-07-19 07:56 58 54 - 86 180° 3 - 30.15 30.14 10 SCT002 6-hr Min Temp (8am): 52.0°F
6-hr Max Temp (8am): 57.9°F
2018-07-19 07:54 57 54 - 87 - Calm - 30.14 - 10 SCT002 None
2018-07-19 07:43 57 54 - 87 170° 3 - 30.14 - 4 BR BKN002 None
2018-07-19 06:56 53 52 - 96 180° 3 - 30.15 30.15 10 CLR None
2018-07-19 06:14 52 52 - 100 170° 3 - 30.15 - 4 BR CLR None
2018-07-19 06:03 52 52 - 100 - Calm - 30.14 - 1 BR CLR None
2018-07-19 05:56 53 52 - 96 170° 3 - 30.14 30.14 10 CLR None
2018-07-19 04:56 53 52 - 96 200° 3 - 30.13 30.13 10 CLR None

Support USWX by starting your Amazon purchase here.